createdAt,value
2018-04-29T00:00:07.984Z,6.97
2018-04-29T00:02:34.948Z,6.50
2018-04-29T00:05:01.139Z,6.87
2018-04-29T00:07:27.378Z,6.60
2018-04-29T00:09:53.791Z,6.30
2018-04-29T00:12:20.311Z,6.73
2018-04-29T00:14:47.264Z,6.50
2018-04-29T00:17:13.460Z,7.20
2018-04-29T00:19:39.659Z,6.30
2018-04-29T00:22:05.837Z,6.73
2018-04-29T00:24:32.019Z,7.60
2018-04-29T00:26:58.182Z,8.17
2018-04-29T00:29:25.123Z,7.77
2018-04-29T00:31:51.319Z,8.70
2018-04-29T00:34:17.490Z,7.57
2018-04-29T00:36:43.656Z,9.77
2018-04-29T00:39:10.614Z,10.43
2018-04-29T00:41:37.523Z,12.47
2018-04-29T00:44:03.709Z,12.30
2018-04-29T00:46:30.639Z,13.33
2018-04-29T00:48:56.828Z,11.40
2018-04-29T00:51:23.035Z,11.17
2018-04-29T00:53:49.973Z,10.17
2018-04-29T00:56:16.137Z,9.53
2018-04-29T00:58:43.051Z,8.90
2018-04-29T01:01:09.245Z,9.40
2018-04-29T01:03:35.484Z,8.43
2018-04-29T01:06:01.776Z,8.33
2018-04-29T01:08:27.976Z,8.60
2018-04-29T01:10:54.195Z,9.40
2018-04-29T01:13:21.109Z,8.47
2018-04-29T01:15:47.299Z,8.63
2018-04-29T01:18:14.248Z,9.27
2018-04-29T01:20:41.161Z,9.73
2018-04-29T01:23:07.380Z,9.73
2018-04-29T01:25:33.543Z,10.00
2018-04-29T01:27:59.719Z,8.57
2018-04-29T01:30:26.646Z,10.43
2018-04-29T01:32:52.891Z,9.10
2018-04-29T01:35:20.560Z,7.93
2018-04-29T01:37:46.731Z,9.47
2018-04-29T01:40:13.665Z,9.33
2018-04-29T01:42:39.859Z,8.87
2018-04-29T01:45:06.048Z,8.17
2018-04-29T01:47:33.719Z,9.50
2018-04-29T01:49:59.880Z,9.03
2018-04-29T01:52:26.816Z,8.87
2018-04-29T01:54:53.025Z,8.00
2018-04-29T01:57:19.218Z,7.93
2018-04-29T01:59:46.131Z,8.60
2018-04-29T02:02:12.324Z,8.40
2018-04-29T02:04:39.231Z,8.87
2018-04-29T02:07:05.415Z,9.23
2018-04-29T02:09:32.347Z,9.13
2018-04-29T02:11:58.510Z,10.13
2018-04-29T02:14:25.478Z,8.27
2018-04-29T02:16:51.708Z,9.13
2018-04-29T02:19:18.616Z,8.87
2018-04-29T02:21:44.792Z,8.33
2018-04-29T02:24:11.728Z,8.00
2018-04-29T02:26:37.889Z,8.87
2018-04-29T02:29:04.044Z,7.60
2018-04-29T02:31:30.972Z,8.70
2018-04-29T02:33:57.148Z,8.00
2018-04-29T02:36:23.358Z,8.37
2018-04-29T02:38:50.299Z,8.80
2018-04-29T02:41:16.484Z,8.13
2018-04-29T02:43:42.652Z,9.27
2018-04-29T02:46:08.843Z,9.20
2018-04-29T02:48:35.032Z,8.37
2018-04-29T02:51:01.196Z,8.37
2018-04-29T02:53:27.401Z,8.40
2018-04-29T02:56:00.545Z,9.60
2018-04-29T02:58:26.753Z,9.43
2018-04-29T03:00:52.944Z,8.20
2018-04-29T03:03:19.871Z,8.93
2018-04-29T03:05:46.045Z,9.07
2018-04-29T03:08:12.960Z,9.47
2018-04-29T03:10:39.137Z,9.70
2018-04-29T03:13:06.147Z,9.23
2018-04-29T03:15:32.331Z,10.10
2018-04-29T03:17:59.270Z,9.73
2018-04-29T03:20:25.460Z,9.87
2018-04-29T03:22:51.648Z,9.67
2018-04-29T03:25:18.586Z,9.10
2018-04-29T03:27:44.774Z,9.63
2018-04-29T03:30:11.684Z,8.93
2018-04-29T03:32:37.869Z,8.87
2018-04-29T03:35:04.076Z,9.80
2018-04-29T03:37:31.009Z,9.00
2018-04-29T03:39:57.187Z,9.30
2018-04-29T03:42:23.371Z,9.53
2018-04-29T03:44:49.564Z,9.93
2018-04-29T03:47:15.732Z,9.77
2018-04-29T03:49:41.919Z,9.10
2018-04-29T03:52:08.094Z,9.63
2018-04-29T03:54:34.252Z,9.17
2018-04-29T03:57:12.771Z,9.57
2018-04-29T03:59:52.123Z,10.07
2018-04-29T04:02:30.741Z,11.33
2018-04-29T04:04:56.837Z,10.33
2018-04-29T04:07:23.052Z,10.17
2018-04-29T04:09:49.373Z,10.37
2018-04-29T04:12:15.494Z,10.33
2018-04-29T04:14:41.709Z,10.87
2018-04-29T04:17:09.405Z,9.60
2018-04-29T04:19:35.600Z,10.87
2018-04-29T04:22:01.828Z,10.60
2018-04-29T04:24:28.059Z,11.13
2018-04-29T04:26:55.009Z,11.77
2018-04-29T04:29:21.234Z,12.20
2018-04-29T04:31:47.457Z,11.77
2018-04-29T04:34:13.698Z,10.83
2018-04-29T04:36:39.868Z,11.90
2018-04-29T04:39:06.080Z,10.07
2018-04-29T04:41:32.299Z,11.60
2018-04-29T04:43:58.468Z,10.90
2018-04-29T04:46:24.714Z,11.73
2018-04-29T04:48:50.937Z,11.33
2018-04-29T04:51:17.184Z,13.20
2018-04-29T04:53:44.125Z,11.30
2018-04-29T04:56:10.326Z,12.33
2018-04-29T04:58:36.527Z,11.23
2018-04-29T05:01:03.492Z,12.03
2018-04-29T05:03:29.675Z,11.60
2018-04-29T05:05:55.846Z,11.23
2018-04-29T05:08:22.830Z,12.27
2018-04-29T05:10:49.115Z,12.57
2018-04-29T05:13:15.288Z,12.47
2018-04-29T05:15:41.492Z,12.37
2018-04-29T05:18:07.666Z,13.67
2018-04-29T05:20:34.580Z,11.90
2018-04-29T05:23:00.767Z,12.77
2018-04-29T05:25:27.731Z,13.40
2018-04-29T05:27:53.952Z,12.97
2018-04-29T05:30:20.903Z,11.80
2018-04-29T05:32:47.840Z,10.93
2018-04-29T05:35:14.027Z,12.73
2018-04-29T05:37:40.217Z,12.43
2018-04-29T05:40:06.403Z,13.17
2018-04-29T05:42:32.597Z,13.47
2018-04-29T05:44:58.783Z,13.93
2018-04-29T05:47:25.037Z,15.27
2018-04-29T05:49:51.250Z,14.57
2018-04-29T05:52:18.218Z,13.77
2018-04-29T05:54:44.404Z,14.67
2018-04-29T05:57:10.585Z,15.90
2018-04-29T05:59:37.503Z,17.27
2018-04-29T06:02:03.686Z,16.70
2018-04-29T06:04:30.591Z,15.27
2018-04-29T06:06:56.842Z,15.27
2018-04-29T06:09:23.037Z,15.47
2018-04-29T06:11:49.239Z,15.63
2018-04-29T06:14:16.932Z,14.33
2018-04-29T06:16:43.852Z,15.17
2018-04-29T06:19:10.027Z,17.20
2018-04-29T06:21:37.182Z,14.07
2018-04-29T06:24:04.160Z,15.10
2018-04-29T06:26:30.343Z,14.07
2018-04-29T06:28:56.544Z,14.33
2018-04-29T06:31:22.776Z,14.57
2018-04-29T06:33:49.006Z,14.00
2018-04-29T06:36:15.968Z,13.87
2018-04-29T06:38:42.953Z,14.43
2018-04-29T06:41:09.106Z,14.87
2018-04-29T06:43:35.293Z,14.23
2018-04-29T06:46:01.680Z,14.40
2018-04-29T06:48:27.909Z,14.10
2018-04-29T06:50:54.209Z,13.17
2018-04-29T06:53:21.156Z,13.63
2018-04-29T06:55:47.405Z,14.10
2018-04-29T06:58:14.367Z,13.67
2018-04-29T07:00:40.575Z,13.63
2018-04-29T07:03:06.752Z,14.67
2018-04-29T07:05:33.711Z,16.10
2018-04-29T07:08:00.713Z,15.77
2018-04-29T07:10:26.940Z,15.50
2018-04-29T07:12:53.265Z,15.60
2018-04-29T07:15:19.472Z,15.13
2018-04-29T07:17:45.672Z,15.57
2018-04-29T07:20:11.864Z,17.10
2018-04-29T07:22:38.076Z,15.37
2018-04-29T07:25:04.315Z,15.80
2018-04-29T07:27:31.330Z,17.33
2018-04-29T07:29:57.504Z,14.97
2018-04-29T07:32:23.765Z,15.13
2018-04-29T07:34:49.968Z,14.10
2018-04-29T07:37:23.070Z,14.10
2018-04-29T07:39:49.285Z,14.23
2018-04-29T07:42:16.217Z,14.33
2018-04-29T07:44:43.124Z,14.23
2018-04-29T07:47:09.280Z,14.53
2018-04-29T07:49:35.471Z,12.77
2018-04-29T07:52:01.705Z,14.10
2018-04-29T07:54:27.883Z,13.53
2018-04-29T07:56:54.144Z,14.13
2018-04-29T07:59:27.409Z,14.17
2018-04-29T08:01:53.618Z,14.77
2018-04-29T08:04:19.791Z,12.63
2018-04-29T08:06:45.961Z,13.50
2018-04-29T08:09:12.177Z,15.27
2018-04-29T08:11:38.355Z,13.70
2018-04-29T08:14:04.527Z,12.50
2018-04-29T08:16:31.481Z,14.03
2018-04-29T08:18:58.401Z,13.77
2018-04-29T08:21:24.608Z,15.13
2018-04-29T08:23:50.847Z,15.40
2018-04-29T08:26:17.024Z,16.47
2018-04-29T08:28:43.182Z,15.40
2018-04-29T08:31:09.369Z,16.40
2018-04-29T08:33:35.537Z,15.10
2018-04-29T08:36:01.715Z,16.00
2018-04-29T08:38:28.715Z,14.70
2018-04-29T08:40:54.951Z,14.40
2018-04-29T08:43:21.176Z,16.03
2018-04-29T08:45:47.338Z,14.73
2018-04-29T08:48:13.505Z,14.27
2018-04-29T08:50:39.677Z,15.33
2018-04-29T08:53:06.682Z,15.10
2018-04-29T08:55:32.855Z,13.30
2018-04-29T08:57:59.039Z,13.77
2018-04-29T09:00:26.114Z,14.47
2018-04-29T09:02:52.376Z,13.57
2018-04-29T09:05:20.032Z,12.53
2018-04-29T09:07:46.223Z,13.97
2018-04-29T09:10:13.177Z,13.70
2018-04-29T09:12:39.339Z,13.23
2018-04-29T09:15:05.539Z,13.20
2018-04-29T09:17:31.809Z,12.47
2018-04-29T09:19:57.937Z,12.20
2018-04-29T09:22:24.971Z,12.30
2018-04-29T09:24:51.268Z,12.57
2018-04-29T09:27:17.448Z,12.07
2018-04-29T09:29:43.627Z,11.63
2018-04-29T09:32:09.862Z,11.73
2018-04-29T09:34:36.787Z,11.03
2018-04-29T09:37:03.067Z,12.13
2018-04-29T09:39:30.008Z,12.20
2018-04-29T09:41:56.961Z,13.50
2018-04-29T09:44:23.176Z,12.63
2018-04-29T09:46:50.175Z,12.10
2018-04-29T09:49:16.373Z,13.00
2018-04-29T09:51:42.579Z,12.03
2018-04-29T09:54:08.760Z,12.27
2018-04-29T09:56:34.933Z,11.90
2018-04-29T09:59:01.887Z,13.07
2018-04-29T10:01:28.139Z,13.37
2018-04-29T10:03:54.324Z,13.27
2018-04-29T10:06:22.017Z,12.63
2018-04-29T10:08:48.936Z,13.90
2018-04-29T10:11:15.134Z,14.17
2018-04-29T10:13:41.331Z,14.00
2018-04-29T10:16:14.496Z,15.67
2018-04-29T10:18:40.707Z,15.57
2018-04-29T10:21:07.652Z,15.67
2018-04-29T10:23:34.580Z,15.37
2018-04-29T10:26:00.760Z,17.00
2018-04-29T10:28:27.671Z,16.30
2018-04-29T10:30:53.878Z,16.07
2018-04-29T10:33:20.065Z,17.07
2018-04-29T10:35:46.261Z,16.47
2018-04-29T10:38:12.435Z,16.93
2018-04-29T10:40:38.613Z,17.60
2018-04-29T10:43:05.587Z,17.23
2018-04-29T10:45:31.803Z,17.67
2018-04-29T10:47:58.768Z,19.20
2018-04-29T10:50:24.968Z,19.60
2018-04-29T10:52:51.944Z,18.67
2018-04-29T10:55:18.167Z,17.43
2018-04-29T10:57:44.352Z,18.80
2018-04-29T11:00:11.303Z,18.20
2018-04-29T11:02:38.239Z,15.47
2018-04-29T11:05:04.443Z,18.67
2018-04-29T11:07:30.856Z,20.00
2018-04-29T11:09:57.093Z,18.83
2018-04-29T11:12:24.017Z,19.67
2018-04-29T11:14:51.760Z,19.07
2018-04-29T11:17:17.942Z,19.00
2018-04-29T11:19:44.119Z,19.53
2018-04-29T11:22:10.338Z,16.03
2018-04-29T11:24:36.497Z,17.40
2018-04-29T11:27:02.712Z,17.17
2018-04-29T11:29:29.660Z,17.27
2018-04-29T11:31:56.587Z,16.07
2018-04-29T11:34:22.772Z,19.43
2018-04-29T11:36:49.701Z,18.63
2018-04-29T11:39:15.895Z,18.07
2018-04-29T11:41:42.076Z,18.37
2018-04-29T11:44:09.757Z,16.23
2018-04-29T11:46:35.943Z,17.53
2018-04-29T11:49:02.126Z,17.50
2018-04-29T11:51:29.076Z,16.03
2018-04-29T11:53:55.256Z,15.20
2018-04-29T11:56:22.173Z,15.73
2018-04-29T11:58:48.393Z,15.50
2018-04-29T12:01:14.575Z,16.20
2018-04-29T12:03:40.765Z,16.60
2018-04-29T12:06:06.955Z,15.70
2018-04-29T12:08:33.874Z,15.00
2018-04-29T12:11:00.040Z,15.30
2018-04-29T12:13:26.994Z,15.53
2018-04-29T12:15:53.205Z,15.30
2018-04-29T12:18:19.391Z,16.60
2018-04-29T12:20:46.307Z,15.63
2018-04-29T12:23:12.487Z,15.20
2018-04-29T12:25:38.686Z,15.23
2018-04-29T12:28:04.892Z,13.63
2018-04-29T12:30:31.052Z,15.10
2018-04-29T12:32:57.256Z,15.10
2018-04-29T12:35:24.185Z,16.30
2018-04-29T12:37:51.128Z,15.10
2018-04-29T12:40:17.305Z,15.53
2018-04-29T12:42:43.533Z,15.43
2018-04-29T12:45:11.017Z,15.23
2018-04-29T12:47:37.213Z,13.43
2018-04-29T12:50:03.454Z,13.97
2018-04-29T12:52:29.619Z,14.17
2018-04-29T12:54:56.696Z,13.77
2018-04-29T12:57:22.923Z,13.03
2018-04-29T12:59:49.859Z,12.53
2018-04-29T13:02:16.803Z,12.47
2018-04-29T13:04:43.008Z,11.63
2018-04-29T13:07:09.176Z,11.27
2018-04-29T13:09:35.372Z,11.73
2018-04-29T13:12:01.597Z,11.20
2018-04-29T13:14:28.514Z,11.87
2018-04-29T13:16:54.723Z,11.87
2018-04-29T13:19:20.929Z,11.70
2018-04-29T13:21:47.222Z,11.70
2018-04-29T13:24:13.341Z,11.10
2018-04-29T13:26:39.528Z,11.43
2018-04-29T13:29:06.463Z,11.57
2018-04-29T13:31:32.639Z,11.30
2018-04-29T13:33:59.597Z,10.57
2018-04-29T13:36:25.801Z,10.17
2018-04-29T13:38:51.992Z,10.23
2018-04-29T13:41:18.998Z,9.47
2018-04-29T13:43:45.175Z,9.77
2018-04-29T13:46:11.373Z,10.20
2018-04-29T13:48:37.597Z,9.53
2018-04-29T13:51:03.788Z,10.63
2018-04-29T13:53:29.977Z,10.60
2018-04-29T13:55:56.189Z,9.97
2018-04-29T13:58:23.131Z,9.97
2018-04-29T14:00:50.064Z,11.50
2018-04-29T14:03:16.329Z,10.40
2018-04-29T14:05:42.448Z,10.97
2018-04-29T14:08:10.185Z,11.13
2018-04-29T14:10:36.433Z,10.60
2018-04-29T14:13:03.414Z,10.97
2018-04-29T14:15:29.635Z,10.47
2018-04-29T14:17:55.847Z,11.00
2018-04-29T14:20:22.045Z,10.33
2018-04-29T14:22:48.228Z,10.30
2018-04-29T14:25:14.419Z,10.17
2018-04-29T14:27:40.605Z,9.63
2018-04-29T14:30:06.801Z,10.60
2018-04-29T14:32:32.999Z,10.23
2018-04-29T14:34:59.187Z,10.33
2018-04-29T14:37:26.123Z,10.73
2018-04-29T14:39:52.387Z,9.97
2018-04-29T14:42:18.563Z,9.00
2018-04-29T14:44:44.743Z,10.40
2018-04-29T14:47:10.940Z,10.20
2018-04-29T14:49:37.253Z,9.83
2018-04-29T14:52:03.353Z,10.07
2018-04-29T14:54:29.548Z,9.93
2018-04-29T14:56:56.459Z,11.10
2018-04-29T14:59:22.665Z,10.03
2018-04-29T15:01:48.883Z,9.93
2018-04-29T15:04:15.811Z,11.47
2018-04-29T15:06:42.003Z,10.37
2018-04-29T15:09:08.193Z,10.20
2018-04-29T15:11:34.371Z,11.00
2018-04-29T15:14:01.385Z,10.33
2018-04-29T15:16:27.656Z,9.93
2018-04-29T15:18:58.987Z,9.87
2018-04-29T15:21:25.177Z,10.17
2018-04-29T15:23:51.455Z,11.37
2018-04-29T15:26:17.640Z,10.63
2018-04-29T15:28:43.825Z,10.67
2018-04-29T15:31:10.020Z,11.53
2018-04-29T15:33:36.956Z,15.37
2018-04-29T15:36:03.880Z,15.20
2018-04-29T15:38:30.091Z,15.93
2018-04-29T15:40:56.308Z,16.43
2018-04-29T15:43:23.288Z,16.50
2018-04-29T15:45:49.587Z,16.53
2018-04-29T15:48:16.539Z,14.97
2018-04-29T15:50:42.742Z,16.20
2018-04-29T15:53:08.965Z,13.87
2018-04-29T15:55:35.158Z,17.23
2018-04-29T15:58:01.432Z,17.07
2018-04-29T16:00:27.620Z,17.77
2018-04-29T16:02:53.840Z,17.60
2018-04-29T16:05:20.045Z,19.23
2018-04-29T16:07:46.274Z,17.17
2018-04-29T16:10:13.208Z,18.43
2018-04-29T16:12:39.395Z,17.40
2018-04-29T16:15:05.620Z,17.10
2018-04-29T16:17:32.549Z,18.40
2018-04-29T16:19:58.786Z,15.93
2018-04-29T16:22:25.086Z,16.77
2018-04-29T16:24:51.310Z,18.30
2018-04-29T16:27:17.509Z,16.20
2018-04-29T16:29:43.739Z,17.20
2018-04-29T16:32:10.085Z,16.50
2018-04-29T16:34:37.031Z,16.77
2018-04-29T16:37:03.254Z,16.30
2018-04-29T16:39:29.593Z,16.53
2018-04-29T16:41:56.661Z,15.00
2018-04-29T16:44:22.868Z,15.53
2018-04-29T16:46:49.112Z,14.93
2018-04-29T16:49:15.325Z,16.57
2018-04-29T16:51:41.637Z,15.70
2018-04-29T16:54:07.815Z,14.73
2018-04-29T16:56:34.735Z,14.23
2018-04-29T16:59:00.947Z,15.27
2018-04-29T17:01:27.456Z,15.53
2018-04-29T17:03:54.383Z,15.87
2018-04-29T17:06:20.583Z,15.17
2018-04-29T17:08:46.792Z,15.33
2018-04-29T17:11:12.999Z,15.00
2018-04-29T17:13:39.209Z,14.67
2018-04-29T17:16:05.419Z,15.43
2018-04-29T17:18:31.639Z,15.97
2018-04-29T17:20:57.839Z,14.17
2018-04-29T17:23:24.057Z,14.43
2018-04-29T17:25:50.254Z,14.60
2018-04-29T17:28:16.469Z,15.20
2018-04-29T17:30:42.682Z,12.63
2018-04-29T17:33:08.883Z,13.40
2018-04-29T17:35:35.854Z,13.27
2018-04-29T17:38:02.148Z,14.43
2018-04-29T17:40:29.015Z,12.60
2018-04-29T17:42:55.269Z,16.13
2018-04-29T17:45:22.283Z,15.27
2018-04-29T17:47:48.505Z,15.93
2018-04-29T17:50:14.792Z,15.33
2018-04-29T17:52:40.971Z,15.27
2018-04-29T17:55:07.165Z,15.10
2018-04-29T17:57:33.362Z,14.77
2018-04-29T17:59:59.583Z,15.87
2018-04-29T18:02:25.808Z,16.40
2018-04-29T18:04:52.038Z,16.07
2018-04-29T18:07:18.212Z,15.80
2018-04-29T18:09:44.364Z,15.00
2018-04-29T18:12:11.311Z,16.13
2018-04-29T18:14:38.230Z,15.90
2018-04-29T18:17:05.699Z,15.50
2018-04-29T18:19:32.145Z,15.73
2018-04-29T18:21:58.353Z,18.37
2018-04-29T18:24:24.516Z,18.73
2018-04-29T18:26:51.470Z,18.70
2018-04-29T18:29:17.632Z,19.03
2018-04-29T18:31:43.785Z,18.47
2018-04-29T18:34:09.945Z,19.00
2018-04-29T18:36:36.115Z,20.70
2018-04-29T18:39:02.281Z,20.37
2018-04-29T18:41:29.218Z,19.60
2018-04-29T18:43:55.365Z,20.23
2018-04-29T18:46:22.264Z,21.43
2018-04-29T18:48:48.481Z,20.27
2018-04-29T18:51:14.773Z,18.00
2018-04-29T18:53:41.618Z,19.80
2018-04-29T18:56:07.830Z,23.43
2018-04-29T18:58:34.744Z,23.20
2018-04-29T19:01:00.901Z,21.07
2018-04-29T19:03:27.832Z,22.10
2018-04-29T19:05:57.967Z,24.57
2018-04-29T19:08:24.948Z,21.80
2018-04-29T19:10:51.097Z,21.03
2018-04-29T19:13:17.256Z,23.47
2018-04-29T19:15:43.455Z,21.43
2018-04-29T19:18:09.636Z,24.73
2018-04-29T19:20:36.539Z,23.73
2018-04-29T19:23:02.697Z,22.60
2018-04-29T19:25:29.620Z,25.37
2018-04-29T19:27:55.818Z,24.03
2018-04-29T19:30:21.973Z,23.90
2018-04-29T19:32:48.136Z,26.83
2018-04-29T19:35:15.020Z,23.07
2018-04-29T19:37:41.165Z,26.23
2018-04-29T19:40:07.375Z,26.70
2018-04-29T19:42:33.525Z,27.13
2018-04-29T19:44:59.669Z,25.80
2018-04-29T19:47:25.965Z,26.13
2018-04-29T19:49:52.112Z,24.90
2018-04-29T19:52:18.265Z,28.53
2018-04-29T19:54:45.169Z,28.80
2018-04-29T19:57:11.322Z,27.77
2018-04-29T19:59:37.480Z,27.40
2018-04-29T20:02:03.678Z,29.47
2018-04-29T20:04:30.691Z,25.53
2018-04-29T20:06:56.861Z,28.00
2018-04-29T20:09:23.798Z,27.97
2018-04-29T20:11:50.745Z,28.73
2018-04-29T20:14:16.889Z,30.10
2018-04-29T20:16:43.005Z,30.63
2018-04-29T20:19:09.123Z,31.00
2018-04-29T20:21:35.214Z,28.87
2018-04-29T20:24:01.361Z,28.63
2018-04-29T20:26:27.475Z,29.00
2018-04-29T20:28:53.622Z,30.33
2018-04-29T20:31:20.522Z,30.07
2018-04-29T20:33:46.650Z,29.37
2018-04-29T20:36:12.780Z,29.33
2018-04-29T20:38:38.913Z,29.00
2018-04-29T20:41:05.047Z,26.87
2018-04-29T20:43:31.164Z,23.97
2018-04-29T20:45:57.412Z,26.97
2018-04-29T20:48:23.602Z,30.53
2018-04-29T20:50:50.456Z,25.77
2018-04-29T20:53:16.665Z,27.00
2018-04-29T20:55:43.525Z,27.40
2018-04-29T20:58:09.686Z,26.37
2018-04-29T21:00:35.885Z,23.63
2018-04-29T21:03:01.965Z,28.97
2018-04-29T21:05:28.849Z,29.60
2018-04-29T21:07:55.814Z,29.10
2018-04-29T21:10:21.965Z,28.60
2018-04-29T21:12:48.090Z,29.63
2018-04-29T21:15:14.241Z,28.43
2018-04-29T21:17:41.101Z,27.80
2018-04-29T21:20:07.225Z,27.70
2018-04-29T21:22:33.449Z,28.13
2018-04-29T21:24:59.629Z,27.80
2018-04-29T21:27:25.840Z,27.17
2018-04-29T21:29:51.996Z,29.27
2018-04-29T21:32:18.138Z,26.63
2018-04-29T21:34:44.321Z,25.70
2018-04-29T21:37:10.494Z,23.60
2018-04-29T21:39:37.416Z,20.93
2018-04-29T21:42:03.505Z,19.60
2018-04-29T21:44:29.635Z,18.33
2018-04-29T21:46:55.834Z,21.20
2018-04-29T21:49:22.009Z,21.07
2018-04-29T21:51:48.983Z,19.53
2018-04-29T21:54:15.100Z,20.67
2018-04-29T21:56:41.289Z,20.87
2018-04-29T21:59:07.457Z,22.30
2018-04-29T22:01:33.569Z,21.03
2018-04-29T22:03:59.704Z,19.20
2018-04-29T22:06:25.834Z,21.47
2018-04-29T22:08:51.939Z,20.43
2018-04-29T22:11:18.066Z,18.97
2018-04-29T22:13:44.219Z,17.17
2018-04-29T22:16:10.349Z,17.97
2018-04-29T22:18:36.501Z,16.93
2018-04-29T22:21:02.706Z,19.30
2018-04-29T22:23:28.845Z,16.73
2018-04-29T22:25:54.948Z,18.30
2018-04-29T22:28:21.809Z,18.23
2018-04-29T22:30:47.994Z,15.37
2018-04-29T22:33:14.102Z,16.67
2018-04-29T22:35:41.055Z,14.87
2018-04-29T22:38:07.973Z,16.03
2018-04-29T22:40:34.943Z,13.33
2018-04-29T22:43:01.081Z,15.17
2018-04-29T22:45:27.213Z,14.70
2018-04-29T22:47:53.322Z,15.70
2018-04-29T22:50:20.289Z,13.73
2018-04-29T22:52:46.410Z,14.33
2018-04-29T22:55:12.562Z,14.17
2018-04-29T22:57:39.531Z,13.87
2018-04-29T23:00:05.657Z,15.27
2018-04-29T23:02:32.506Z,13.70
2018-04-29T23:07:55.434Z,15.20
2018-04-29T23:10:21.653Z,14.37
2018-04-29T23:12:47.855Z,10.13
2018-04-29T23:15:14.029Z,5.83
2018-04-29T23:17:40.214Z,4.73
2018-04-29T23:20:06.365Z,5.40
2018-04-29T23:22:32.568Z,5.47
2018-04-29T23:24:58.798Z,5.83
2018-04-29T23:27:25.678Z,6.60
2018-04-29T23:29:51.841Z,5.90
2018-04-29T23:32:18.025Z,5.03
2018-04-29T23:34:44.198Z,7.43
2018-04-29T23:37:10.354Z,4.53
2018-04-29T23:39:37.250Z,5.60
2018-04-29T23:42:03.471Z,6.30
2018-04-29T23:44:29.625Z,5.60
2018-04-29T23:46:55.800Z,6.30
2018-04-29T23:49:21.977Z,5.90
2018-04-29T23:51:48.211Z,5.97
2018-04-29T23:54:14.432Z,6.73
2018-04-29T23:56:40.617Z,6.10
2018-04-29T23:59:06.800Z,6.43
